Sun City, California
Current Conditions -  °F | °C
As of 8:15 PM on Tuesday 25 Nov 2014 (Local Time) from KF70 Reporting Station
Clear Clear  
Wind Chill: 12°   Ceiling: Unl
Heat Index: 12°   Visibility: 10mi
Dew Point: -9°   Wind: 3mph
Humidity: 22%   Direction: 10°N
Pressure: 30.31"   Gusts: NA
Location:  33.71°N, 117.19°W
Report Text: KF70 260415Z AUTO 01003KT 10SM CLR 12/M09 A3031 RMK AO1
Loading
Personal Weather Stations






























Interactive Weather Map New forecast layout! Learn more

10-Day Weather Forecast

Advertisements
Track Severe Weather on mobile